createdAt,value
2023-02-17T00:01:49.914Z,100382.90
2023-02-17T00:04:19.931Z,100374.32
2023-02-17T00:06:50.103Z,100372.60
2023-02-17T00:09:20.607Z,100367.11
2023-02-17T00:11:55.383Z,100367.98
2023-02-17T00:14:22.459Z,100365.39
2023-02-17T00:16:49.607Z,100361.44
2023-02-17T00:19:26.259Z,100364.36
2023-02-17T00:22:05.113Z,100356.80
2023-02-17T00:24:39.020Z,100361.81
2023-02-17T00:27:26.686Z,100358.02
2023-02-17T00:29:54.247Z,100361.46
2023-02-17T00:32:41.656Z,100357.17
2023-02-17T00:35:24.556Z,100354.25
2023-02-17T00:37:51.808Z,100352.70
2023-02-17T00:40:22.113Z,100349.79
2023-02-17T00:42:55.141Z,100344.11
2023-02-17T00:45:42.782Z,100343.60
2023-02-17T00:48:30.425Z,100339.13
2023-02-17T00:51:00.621Z,100341.70
2023-02-17T00:53:31.253Z,100340.52
2023-02-17T00:56:09.686Z,100335.01
2023-02-17T00:58:56.979Z,100334.66
2023-02-17T01:01:44.474Z,100330.02
2023-02-17T01:04:22.996Z,100330.54
2023-02-17T01:06:52.830Z,100325.39
2023-02-17T01:09:29.220Z,100325.55
2023-02-17T01:12:12.343Z,100323.31
2023-02-17T01:14:42.653Z,100322.98
2023-02-17T01:17:09.626Z,100314.40
2023-02-17T01:19:48.214Z,100317.15
2023-02-17T01:22:16.596Z,100313.20
2023-02-17T01:24:55.348Z,100308.90
2023-02-17T01:27:31.270Z,100302.02
2023-02-17T01:29:58.985Z,100296.86
2023-02-17T01:32:33.761Z,100289.12
2023-02-17T01:35:21.107Z,100288.09
2023-02-17T01:37:48.034Z,100287.39
2023-02-17T01:40:18.510Z,100289.63
2023-02-17T01:42:48.226Z,100281.89
2023-02-17T01:45:38.465Z,100280.01
2023-02-17T01:48:11.768Z,100277.44
2023-02-17T01:50:41.367Z,100284.31
2023-02-17T01:53:11.181Z,100285.34
2023-02-17T01:55:40.786Z,100286.02
2023-02-17T01:58:13.150Z,100285.16
2023-02-17T02:00:43.165Z,100278.13
2023-02-17T02:03:14.114Z,100277.94
2023-02-17T02:05:43.695Z,100275.02
2023-02-17T02:08:15.279Z,100273.48
2023-02-17T02:10:42.518Z,100274.67
2023-02-17T02:13:11.041Z,100271.05
2023-02-17T02:15:44.787Z,100268.81
2023-02-17T02:18:29.977Z,100267.28
2023-02-17T02:21:27.246Z,100262.63
2023-02-17T02:24:08.726Z,100259.54
2023-02-17T02:27:18.972Z,100258.50
2023-02-17T02:30:22.605Z,100260.20
2023-02-17T02:33:01.416Z,100258.33
2023-02-17T02:35:35.633Z,100259.02
2023-02-17T02:38:07.699Z,100259.00
2023-02-17T02:45:11.756Z,100259.86
2023-02-17T02:47:53.057Z,100258.65
2023-02-17T02:50:33.077Z,100255.55
2023-02-17T02:53:10.059Z,100250.08
2023-02-17T02:55:54.236Z,100248.02
2023-02-17T02:58:30.695Z,100240.96
2023-02-17T03:01:05.226Z,100234.94
2023-02-17T03:03:42.657Z,100242.48
2023-02-17T03:06:28.991Z,100246.44
2023-02-17T03:09:06.687Z,100244.71
2023-02-17T03:11:34.304Z,100244.19
2023-02-17T03:14:23.719Z,100238.33
2023-02-17T03:17:11.925Z,100239.88
2023-02-17T03:19:42.634Z,100240.55
2023-02-17T03:22:16.651Z,100247.59
2023-02-17T03:24:47.726Z,100248.96
2023-02-17T03:27:35.738Z,100249.83
2023-02-17T03:30:03.520Z,100247.44
2023-02-17T03:32:33.845Z,100247.43
2023-02-17T03:35:01.746Z,100243.48
2023-02-17T03:37:32.380Z,100245.02
2023-02-17T03:39:59.636Z,100244.31
2023-02-17T03:42:27.498Z,100243.83
2023-02-17T03:44:54.765Z,100245.20
2023-02-17T03:47:21.905Z,100251.73
2023-02-17T03:49:49.581Z,100254.83
2023-02-17T03:52:16.677Z,100252.94
2023-02-17T03:54:44.067Z,100251.05
2023-02-17T03:57:11.732Z,100246.75
2023-02-17T03:59:41.385Z,100241.58
2023-02-17T04:02:11.766Z,100234.52
2023-02-17T04:04:39.497Z,100229.53
2023-02-17T04:07:06.855Z,100224.21
2023-02-17T04:09:34.237Z,100223.69
2023-02-17T04:12:04.865Z,100222.48
2023-02-17T04:14:52.389Z,100219.56
2023-02-17T04:17:20.107Z,100229.36
2023-02-17T04:19:47.261Z,100231.09
2023-02-17T04:22:16.380Z,100232.29
2023-02-17T04:24:57.743Z,100230.74
2023-02-17T04:27:25.708Z,100228.85
2023-02-17T04:29:55.878Z,100229.19
2023-02-17T04:32:23.317Z,100229.17
2023-02-17T04:34:50.758Z,100221.25
2023-02-17T04:37:28.162Z,100217.98
2023-02-17T04:39:58.315Z,100210.41
2023-02-17T04:42:25.575Z,100205.23
2023-02-17T04:44:53.175Z,100208.14
2023-02-17T04:47:20.734Z,100208.48
2023-02-17T04:49:51.336Z,100204.69
2023-02-17T04:52:21.386Z,100210.20
2023-02-17T04:54:48.936Z,100208.14
2023-02-17T04:57:16.174Z,100203.33
2023-02-17T04:59:53.565Z,100193.35
2023-02-17T05:02:20.795Z,100180.42
2023-02-17T05:04:52.465Z,100171.83
2023-02-17T05:07:31.053Z,100174.73
2023-02-17T05:10:00.827Z,100178.34
2023-02-17T05:12:27.884Z,100180.73
2023-02-17T05:14:58.479Z,100179.36
2023-02-17T05:17:25.632Z,100172.65
2023-02-17T05:19:52.769Z,100178.32
2023-02-17T05:22:20.104Z,100179.17
2023-02-17T05:24:47.439Z,100172.29
2023-02-17T05:27:14.654Z,100167.81
2023-02-17T05:29:42.015Z,100165.58
2023-02-17T05:32:09.494Z,100165.40
2023-02-17T05:34:39.045Z,100164.18
2023-02-17T05:37:07.249Z,100157.30
2023-02-17T05:39:34.664Z,100159.21
2023-02-17T05:42:05.136Z,100163.84
2023-02-17T05:44:32.590Z,100162.45
2023-02-17T05:47:00.314Z,100158.15
2023-02-17T05:49:27.524Z,100155.58
2023-02-17T05:51:57.578Z,100155.57
2023-02-17T05:54:25.252Z,100153.17
2023-02-17T05:56:52.616Z,100153.17
2023-02-17T05:59:24.505Z,100151.98
2023-02-17T06:01:51.875Z,100147.86
2023-02-17T06:04:19.212Z,100144.08
2023-02-17T06:06:46.809Z,100139.61
2023-02-17T06:09:14.182Z,100147.01
2023-02-17T06:11:41.326Z,100148.73
2023-02-17T06:14:12.078Z,100139.13
2023-02-17T06:16:39.498Z,100150.13
2023-02-17T06:19:07.158Z,100146.50
2023-02-17T06:21:34.555Z,100145.46
2023-02-17T06:24:02.034Z,100147.17
2023-02-17T06:26:29.365Z,100149.77
2023-02-17T06:29:17.253Z,100153.20
2023-02-17T06:31:44.545Z,100150.77
2023-02-17T06:34:11.917Z,100151.96
2023-02-17T06:36:39.449Z,100152.48
2023-02-17T06:39:06.954Z,100146.63
2023-02-17T06:41:34.336Z,100144.73
2023-02-17T06:44:01.707Z,100144.36
2023-02-17T06:46:28.984Z,100135.76
2023-02-17T06:48:56.246Z,100129.38
2023-02-17T06:51:23.896Z,100132.81
2023-02-17T06:53:51.153Z,100127.15
2023-02-17T06:56:20.881Z,100128.16
2023-02-17T06:58:48.726Z,100129.86
2023-02-17T07:01:21.143Z,100127.94
2023-02-17T07:03:48.703Z,100123.95
2023-02-17T07:06:16.641Z,100123.04
2023-02-17T07:08:43.782Z,100127.47
2023-02-17T07:11:13.805Z,100127.77
2023-02-17T07:13:42.283Z,100131.72
2023-02-17T07:16:14.194Z,100124.45
2023-02-17T07:18:41.910Z,100120.61
2023-02-17T07:21:12.344Z,100120.19
2023-02-17T07:23:40.223Z,100117.17
2023-02-17T07:26:09.622Z,100117.77
2023-02-17T07:28:37.186Z,100120.16
2023-02-17T07:31:10.079Z,100118.27
2023-02-17T07:33:38.563Z,100121.98
2023-02-17T07:36:10.983Z,100117.92
2023-02-17T07:38:40.437Z,100123.38
2023-02-17T07:41:10.640Z,100120.38
2023-02-17T07:43:38.118Z,100123.69
2023-02-17T07:46:06.677Z,100111.50
2023-02-17T07:48:34.281Z,100116.02
2023-02-17T07:51:07.805Z,100118.11
2023-02-17T07:53:36.060Z,100118.79
2023-02-17T07:56:05.765Z,100114.29
2023-02-17T07:58:34.726Z,100108.75
2023-02-17T08:01:06.147Z,100112.02
2023-02-17T08:03:33.672Z,100115.98
2023-02-17T08:06:01.289Z,100111.27
2023-02-17T08:08:49.735Z,100102.95
2023-02-17T08:11:44.825Z,100099.13
2023-02-17T08:14:13.283Z,100102.18
2023-02-17T08:16:40.752Z,100099.88
2023-02-17T08:19:08.699Z,100100.56
2023-02-17T08:21:56.530Z,100094.84
2023-02-17T08:24:43.959Z,100098.24
2023-02-17T08:27:15.040Z,100101.98
2023-02-17T08:29:42.748Z,100099.70
2023-02-17T08:32:14.523Z,100094.67
2023-02-17T08:34:51.272Z,100090.84
2023-02-17T08:37:18.701Z,100088.05
2023-02-17T08:39:45.791Z,100087.27
2023-02-17T08:42:12.971Z,100081.70
2023-02-17T08:45:00.905Z,100078.67
2023-02-17T08:47:28.233Z,100074.48
2023-02-17T08:49:56.270Z,100076.25
2023-02-17T08:52:23.636Z,100076.86
2023-02-17T08:54:52.810Z,100075.73
2023-02-17T08:57:21.704Z,100077.02
2023-02-17T08:59:49.577Z,100069.73
2023-02-17T09:02:17.850Z,100069.52
2023-02-17T09:04:54.893Z,100072.27
2023-02-17T09:07:22.292Z,100073.93
2023-02-17T09:09:49.851Z,100071.42
2023-02-17T09:12:36.561Z,100075.55
2023-02-17T09:15:04.347Z,100072.52
2023-02-17T09:17:31.812Z,100074.96
2023-02-17T09:19:59.564Z,100068.42
2023-02-17T09:22:32.110Z,100071.88
2023-02-17T09:25:05.681Z,100066.04
2023-02-17T09:27:33.457Z,100064.01
2023-02-17T09:30:02.440Z,100061.63
2023-02-17T09:32:33.204Z,100054.39
2023-02-17T09:35:06.210Z,100053.20
2023-02-17T09:37:34.368Z,100050.67
2023-02-17T09:40:01.841Z,100049.52
2023-02-17T09:42:34.764Z,100047.48
2023-02-17T09:45:08.178Z,100043.41
2023-02-17T09:47:43.404Z,100039.11
2023-02-17T09:50:14.914Z,100031.38
2023-02-17T09:52:52.753Z,100028.42
2023-02-17T09:55:25.326Z,100023.05
2023-02-17T09:57:57.839Z,100018.20
2023-02-17T10:00:34.020Z,100013.89
2023-02-17T10:03:07.763Z,100015.62
2023-02-17T10:05:41.359Z,100012.01
2023-02-17T10:08:14.198Z,100016.84
2023-02-17T10:10:49.219Z,100013.59
2023-02-17T10:13:19.215Z,100017.10
2023-02-17T10:15:50.845Z,100018.03
2023-02-17T10:18:21.211Z,100017.07
2023-02-17T10:20:53.741Z,100013.12
2023-02-17T10:23:23.396Z,100008.69
2023-02-17T10:26:07.661Z,100005.77
2023-02-17T10:28:48.600Z,100004.40
2023-02-17T10:31:28.218Z,100000.61
2023-02-17T10:34:03.036Z,99999.07
2023-02-17T10:36:39.012Z,99993.54
2023-02-17T10:39:14.740Z,99986.80
2023-02-17T10:41:47.111Z,99978.52
2023-02-17T10:44:21.152Z,99976.42
2023-02-17T10:46:49.718Z,99963.84
2023-02-17T10:49:26.465Z,99961.27
2023-02-17T10:51:54.149Z,99956.08
2023-02-17T10:54:31.504Z,99952.23
2023-02-17T10:57:05.998Z,99950.16
2023-02-17T10:59:38.956Z,99946.30
2023-02-17T11:02:19.452Z,99943.96
2023-02-17T11:04:49.213Z,99935.23
2023-02-17T11:07:19.996Z,99932.95
2023-02-17T11:09:52.367Z,99923.95
2023-02-17T11:12:25.836Z,99916.73
2023-02-17T11:14:55.752Z,99913.97
2023-02-17T11:17:29.708Z,99908.62
2023-02-17T11:20:04.389Z,99900.38
2023-02-17T11:22:38.491Z,99890.36
2023-02-17T11:25:09.125Z,99883.80
2023-02-17T11:27:36.386Z,99880.35
2023-02-17T11:30:19.841Z,99870.86
2023-02-17T11:32:47.738Z,99864.48
2023-02-17T11:35:27.829Z,99857.87
2023-02-17T11:38:02.563Z,99848.58
2023-02-17T11:40:32.424Z,99839.20
2023-02-17T11:43:04.474Z,99839.16
2023-02-17T11:45:40.302Z,99839.35
2023-02-17T11:48:27.047Z,99828.09
2023-02-17T11:51:01.561Z,99828.73
2023-02-17T11:53:48.084Z,99824.60
2023-02-17T11:56:20.027Z,99814.41
2023-02-17T11:59:04.645Z,99814.90
2023-02-17T12:01:47.800Z,99814.02
2023-02-17T12:04:30.271Z,99803.73
2023-02-17T12:07:28.282Z,99800.44
2023-02-17T12:09:58.533Z,99788.71
2023-02-17T12:12:32.930Z,99782.33
2023-02-17T12:15:10.192Z,99771.96
2023-02-17T12:17:47.948Z,99767.45
2023-02-17T12:20:38.590Z,99758.27
2023-02-17T12:23:20.903Z,99754.11
2023-02-17T12:25:53.416Z,99743.68
2023-02-17T12:28:41.413Z,99736.90
2023-02-17T12:31:20.828Z,99728.63
2023-02-17T12:33:58.502Z,99714.45
2023-02-17T12:36:30.428Z,99713.05
2023-02-17T12:39:01.702Z,99704.95
2023-02-17T12:41:33.369Z,99699.23
2023-02-17T12:44:04.700Z,99696.63
2023-02-17T12:46:38.388Z,99699.71
2023-02-17T12:49:12.692Z,99705.70
2023-02-17T12:51:43.856Z,99694.83
2023-02-17T12:54:19.934Z,99692.19
2023-02-17T12:56:55.758Z,99689.05
2023-02-17T12:59:28.064Z,99690.59
2023-02-17T13:02:02.785Z,99687.11
2023-02-17T13:04:33.776Z,99679.84
2023-02-17T13:07:15.466Z,99673.91
2023-02-17T13:09:48.200Z,99673.94
2023-02-17T13:12:34.098Z,99662.73
2023-02-17T13:15:33.798Z,99660.52
2023-02-17T13:18:04.301Z,99654.61
2023-02-17T13:20:52.428Z,99650.25
2023-02-17T13:23:37.805Z,99642.62
2023-02-17T13:26:32.373Z,99637.05
2023-02-17T13:29:24.476Z,99632.38
2023-02-17T13:31:55.440Z,99627.68
2023-02-17T13:34:33.264Z,99621.98
2023-02-17T13:37:03.433Z,99617.27
2023-02-17T13:39:40.574Z,99614.98
2023-02-17T13:42:38.485Z,99607.23
2023-02-17T13:45:15.339Z,99612.42
2023-02-17T13:47:44.049Z,99605.55
2023-02-17T13:50:33.176Z,99607.11
2023-02-17T13:53:00.640Z,99600.92
2023-02-17T13:55:28.452Z,99596.77
2023-02-17T13:57:57.976Z,99589.06
2023-02-17T14:00:31.311Z,99588.90
2023-02-17T14:03:00.714Z,99586.00
2023-02-17T14:05:37.918Z,99586.17
2023-02-17T14:08:05.758Z,99578.91
2023-02-17T14:10:33.694Z,99584.42
2023-02-17T14:13:01.959Z,99573.54
2023-02-17T14:15:31.110Z,99569.86
2023-02-17T14:17:58.320Z,99563.45
2023-02-17T14:20:31.416Z,99556.01
2023-02-17T14:23:06.096Z,99547.20
2023-02-17T14:25:36.659Z,99537.83
2023-02-17T14:28:04.395Z,99535.63
2023-02-17T14:30:34.612Z,99531.16
2023-02-17T14:33:23.852Z,99517.90
2023-02-17T14:35:56.143Z,99513.77
2023-02-17T14:38:26.510Z,99503.45
2023-02-17T14:40:56.102Z,99496.40
2023-02-17T14:43:26.443Z,99490.20
2023-02-17T14:45:57.376Z,99486.95
2023-02-17T14:48:27.389Z,99477.98
2023-02-17T14:50:59.050Z,99474.89
2023-02-17T14:53:29.769Z,99467.33
2023-02-17T14:56:02.403Z,99461.45
2023-02-17T14:58:30.430Z,99459.05
2023-02-17T15:01:07.651Z,99455.93
2023-02-17T15:03:34.794Z,99447.45
2023-02-17T15:06:02.810Z,99445.36
2023-02-17T15:08:34.701Z,99439.98
2023-02-17T15:11:29.008Z,99433.41
2023-02-17T15:13:57.456Z,99430.98
2023-02-17T15:16:25.184Z,99429.59
2023-02-17T15:18:52.322Z,99425.61
2023-02-17T15:21:29.107Z,99420.61
2023-02-17T15:24:15.131Z,99418.15
2023-02-17T15:26:54.621Z,99413.45
2023-02-17T15:29:23.670Z,99406.19
2023-02-17T15:31:53.353Z,99401.53
2023-02-17T15:34:23.488Z,99392.05
2023-02-17T15:36:50.584Z,99387.21
2023-02-17T15:39:19.576Z,99386.84
2023-02-17T15:41:48.344Z,99376.33
2023-02-17T15:44:20.110Z,99364.92
2023-02-17T15:46:49.265Z,99355.63
2023-02-17T15:49:16.733Z,99355.30
2023-02-17T15:51:44.070Z,99352.55
2023-02-17T15:54:11.530Z,99340.31
2023-02-17T15:56:45.321Z,99337.23
2023-02-17T15:59:17.530Z,99329.63
2023-02-17T16:01:45.274Z,99329.99
2023-02-17T16:04:14.742Z,99323.13
2023-02-17T16:06:42.360Z,99316.56
2023-02-17T16:09:10.117Z,99319.13
2023-02-17T16:11:52.878Z,99310.48
2023-02-17T16:14:26.440Z,99302.05
2023-02-17T16:16:54.075Z,99301.34
2023-02-17T16:19:41.622Z,99303.39
2023-02-17T16:22:08.904Z,99289.77
2023-02-17T16:24:38.265Z,99287.88
2023-02-17T16:27:08.345Z,99279.24
2023-02-17T16:29:35.967Z,99277.17
2023-02-17T16:32:11.704Z,99274.06
2023-02-17T16:34:43.094Z,99267.68
2023-02-17T16:37:17.090Z,99270.59
2023-02-17T16:39:45.414Z,99270.58
2023-02-17T16:42:15.726Z,99262.42
2023-02-17T16:44:44.311Z,99262.56
2023-02-17T16:47:25.630Z,99256.31
2023-02-17T16:49:53.453Z,99248.33
2023-02-17T16:52:27.769Z,99242.62
2023-02-17T16:54:55.558Z,99234.66
2023-02-17T16:57:23.550Z,99230.83
2023-02-17T17:00:00.170Z,99220.46
2023-02-17T17:02:30.028Z,99221.84
2023-02-17T17:05:08.126Z,99213.90
2023-02-17T17:07:35.435Z,99209.92
2023-02-17T17:10:16.302Z,99205.93
2023-02-17T17:12:45.509Z,99195.58
2023-02-17T17:15:16.980Z,99185.90
2023-02-17T17:17:47.479Z,99180.90
2023-02-17T17:20:19.039Z,99184.52
2023-02-17T17:22:49.523Z,99182.80
2023-02-17T17:25:17.263Z,99173.45
2023-02-17T17:27:47.090Z,99167.40
2023-02-17T17:30:21.193Z,99165.83
2023-02-17T17:32:48.917Z,99156.98
2023-02-17T17:35:16.583Z,99153.30
2023-02-17T17:37:44.516Z,99143.23
2023-02-17T17:40:19.176Z,99138.02
2023-02-17T17:42:46.837Z,99129.88
2023-02-17T17:45:15.210Z,99126.42
2023-02-17T17:47:42.957Z,99111.42
2023-02-17T17:50:14.117Z,99105.52
2023-02-17T17:52:41.476Z,99114.92
2023-02-17T17:55:09.214Z,99106.41
2023-02-17T17:57:36.578Z,99106.00
2023-02-17T18:00:06.146Z,99105.24
2023-02-17T18:02:42.435Z,99096.41
2023-02-17T18:05:11.075Z,99099.32
2023-02-17T18:07:39.714Z,99087.14
2023-02-17T18:10:11.106Z,99084.48
2023-02-17T18:12:41.475Z,99080.80
2023-02-17T18:15:10.874Z,99075.23
2023-02-17T18:17:41.826Z,99073.84
2023-02-17T18:20:12.927Z,99068.92
2023-02-17T18:22:40.431Z,99080.41
2023-02-17T18:25:08.839Z,99076.00
2023-02-17T18:27:42.765Z,99065.77
2023-02-17T18:30:12.770Z,99054.03
2023-02-17T18:32:40.075Z,99050.56
2023-02-17T18:35:10.848Z,99045.01
2023-02-17T18:37:38.135Z,99038.40
2023-02-17T18:40:06.469Z,99040.23
2023-02-17T18:42:34.191Z,99041.21
2023-02-17T18:45:07.959Z,99039.77
2023-02-17T18:47:40.874Z,99036.77
2023-02-17T18:50:09.905Z,99028.55
2023-02-17T18:52:41.825Z,99022.07
2023-02-17T18:55:22.383Z,99031.35
2023-02-17T18:57:49.749Z,99028.48
2023-02-17T19:00:20.282Z,99020.12
2023-02-17T19:02:58.021Z,99014.34
2023-02-17T19:05:30.397Z,99005.80
2023-02-17T19:07:58.708Z,99012.46
2023-02-17T19:10:26.042Z,99016.66
2023-02-17T19:12:54.113Z,99006.41
2023-02-17T19:15:21.915Z,99007.14
2023-02-17T19:17:51.095Z,99006.23
2023-02-17T19:20:18.899Z,99011.02
2023-02-17T19:22:46.469Z,99000.77
2023-02-17T19:25:13.602Z,98990.85
2023-02-17T19:27:51.982Z,98994.54
2023-02-17T19:30:19.876Z,98996.15
2023-02-17T19:32:47.110Z,98992.10
2023-02-17T19:35:14.866Z,98990.12
2023-02-17T19:37:42.040Z,98985.93
2023-02-17T19:40:17.013Z,98978.58
2023-02-17T19:42:44.115Z,98976.77
2023-02-17T19:45:20.655Z,98979.09
2023-02-17T19:47:50.151Z,98971.02
2023-02-17T19:50:19.604Z,98967.99
2023-02-17T19:52:57.944Z,98977.34
2023-02-17T19:55:26.450Z,98966.67
2023-02-17T19:57:59.415Z,98969.27
2023-02-17T20:00:45.362Z,98967.57
2023-02-17T20:03:12.834Z,98973.48
2023-02-17T20:05:42.689Z,98964.35
2023-02-17T20:08:14.805Z,98967.98
2023-02-17T20:10:43.402Z,98969.00
2023-02-17T20:13:10.708Z,98960.72
2023-02-17T20:15:38.369Z,98951.20
2023-02-17T20:18:05.726Z,98956.23
2023-02-17T20:20:32.950Z,98951.75
2023-02-17T20:23:00.323Z,98949.67
2023-02-17T20:25:27.527Z,98946.77
2023-02-17T20:27:55.911Z,98947.46
2023-02-17T20:30:24.977Z,98954.42
2023-02-17T20:32:52.116Z,98945.46
2023-02-17T20:35:19.570Z,98940.13
2023-02-17T20:37:47.025Z,98940.70
2023-02-17T20:40:16.877Z,98941.27
2023-02-17T20:42:43.941Z,98936.27
2023-02-17T20:45:11.610Z,98935.98
2023-02-17T20:47:38.851Z,98936.85
2023-02-17T20:50:09.358Z,98935.00
2023-02-17T20:52:39.722Z,98942.08
2023-02-17T20:55:07.805Z,98934.19
2023-02-17T20:57:34.986Z,98929.03
2023-02-17T21:00:02.606Z,98928.45
2023-02-17T21:02:29.927Z,98923.31
2023-02-17T21:05:17.638Z,98918.86
2023-02-17T21:07:44.905Z,98917.77
2023-02-17T21:10:19.716Z,98910.61
2023-02-17T21:12:47.761Z,98911.95
2023-02-17T21:15:15.366Z,98907.75
2023-02-17T21:17:42.938Z,98903.52
2023-02-17T21:20:15.296Z,98902.73
2023-02-17T21:22:42.650Z,98909.27
2023-02-17T21:25:13.065Z,98904.49
2023-02-17T21:27:40.247Z,98904.78
2023-02-17T21:30:10.558Z,98900.16
2023-02-17T21:32:37.944Z,98896.27
2023-02-17T21:35:05.434Z,98884.26
2023-02-17T21:37:43.915Z,98881.92
2023-02-17T21:40:13.654Z,98892.78
2023-02-17T21:43:03.854Z,98890.27
2023-02-17T21:45:32.462Z,98892.70
2023-02-17T21:47:59.792Z,98884.42
2023-02-17T21:50:26.863Z,98888.77
2023-02-17T21:52:53.980Z,98889.14
2023-02-17T21:55:24.221Z,98893.16
2023-02-17T21:57:51.992Z,98898.56
2023-02-17T22:00:22.045Z,98909.86
2023-02-17T22:02:49.453Z,98915.41
2023-02-17T22:05:17.307Z,98918.05
2023-02-17T22:07:44.337Z,98930.81
2023-02-17T22:10:12.509Z,98927.84
2023-02-17T22:12:39.834Z,98912.93
2023-02-17T22:15:07.735Z,98916.98
2023-02-17T22:17:37.395Z,98907.89
2023-02-17T22:20:05.944Z,98925.25
2023-02-17T22:22:40.925Z,98929.64
2023-02-17T22:25:08.876Z,98931.73
2023-02-17T22:27:36.691Z,98927.48
2023-02-17T22:30:03.895Z,98927.23
2023-02-17T22:32:31.478Z,98918.64
2023-02-17T22:34:58.896Z,98914.53
2023-02-17T22:37:26.824Z,98913.45
2023-02-17T22:39:56.882Z,98899.12
2023-02-17T22:42:24.948Z,98915.88
2023-02-17T22:44:53.237Z,98914.77
2023-02-17T22:47:20.594Z,98920.92
2023-02-17T22:49:48.004Z,98928.27
2023-02-17T22:52:15.595Z,98931.66
2023-02-17T22:54:44.406Z,98938.05
2023-02-17T22:57:12.162Z,98939.84
2023-02-17T22:59:42.219Z,98939.29
2023-02-17T23:02:12.651Z,98935.98
2023-02-17T23:04:39.895Z,98938.02
2023-02-17T23:07:07.549Z,98942.25
2023-02-17T23:09:35.079Z,98942.36
2023-02-17T23:12:02.230Z,98943.81
2023-02-17T23:14:36.343Z,98943.88
2023-02-17T23:17:05.973Z,98950.50
2023-02-17T23:19:34.227Z,98950.55
2023-02-17T23:22:06.746Z,98948.02
2023-02-17T23:24:34.877Z,98946.70
2023-02-17T23:27:03.419Z,98945.11
2023-02-17T23:29:31.642Z,98939.63
2023-02-17T23:32:00.705Z,98939.03
2023-02-17T23:34:28.912Z,98942.91
2023-02-17T23:36:56.145Z,98947.83
2023-02-17T23:39:23.963Z,98937.17
2023-02-17T23:41:53.585Z,98946.23
2023-02-17T23:44:24.085Z,98951.27
2023-02-17T23:46:51.505Z,98959.23
2023-02-17T23:49:19.348Z,98959.48
2023-02-17T23:51:48.097Z,98966.81
2023-02-17T23:54:18.228Z,98974.81
2023-02-17T23:56:45.690Z,98974.52
2023-02-17T23:59:23.015Z,98963.38
